Time;durP1;ratioP1;P1;durP2;ratioP2;P2;SDS_P1;SDS_P2;PMS_P1;PMS_P2;Temp;Humidity;BMP_temperature;BMP_pressure;BME280_temperature;BME280_humidity;BME280_pressure;Samples;Min_cycle;Max_cycle;Signal;HPM_P1;HPM_P2
2022/10/13 00:00:28;;;;;;;10.43;6.13;;;;;;;;;;4977183;28;20457;-62
2022/10/13 00:02:54;;;;;;;6.72;4.30;;;;;;;;;;4977355;28;20178;-61
2022/10/13 00:05:20;;;;;;;7.63;5.10;;;;;;;;;;4977417;28;20484;-62
2022/10/13 00:07:46;;;;;;;13.77;7.10;;;;;;;;;;4977514;28;20109;-64
2022/10/13 00:10:12;;;;;;;11.25;6.70;;;;;;;;;;4977500;28;20492;-62
2022/10/13 00:12:38;;;;;;;12.50;6.72;;;;;;;;;;4979639;28;20053;-61
2022/10/13 00:15:08;;;;;;;14.00;7.55;;;;;;;;;;4996255;28;20032;-61
2022/10/13 00:17:37;;;;;;;14.27;8.35;;;;;;;;;;4996224;28;20030;-61
2022/10/13 00:20:05;;;;;;;13.45;8.98;;;;;;;;;;4996451;28;20023;-62
2022/10/13 00:22:31;;;;;;;13.88;7.82;;;;;;;;;;4996228;28;20044;-62
2022/10/13 00:24:57;;;;;;;12.65;7.82;;;;;;;;;;4995107;28;20061;-62
2022/10/13 00:27:23;;;;;;;11.27;8.10;;;;;;;;;;4997102;28;20402;-65
2022/10/13 00:29:49;;;;;;;12.13;8.30;;;;;;;;;;5000256;28;20054;-61
2022/10/13 00:32:15;;;;;;;10.07;7.50;;;;;;;;;;4995346;28;20042;-62
2022/10/13 00:34:40;;;;;;;11.88;7.82;;;;;;;;;;4993942;28;20026;-61
2022/10/13 00:37:06;;;;;;;13.85;8.32;;;;;;;;;;4994552;28;20045;-61
2022/10/13 00:39:33;;;;;;;12.80;8.82;;;;;;;;;;4995540;28;20266;-61
2022/10/13 00:41:59;;;;;;;11.80;8.45;;;;;;;;;;4995260;28;20504;-61
2022/10/13 00:44:53;;;;;;;13.95;9.55;;;;;;;;;;4994179;28;20034;-62
2022/10/13 00:47:20;;;;;;;15.07;10.02;;;;;;;;;;4976048;28;20489;-65
2022/10/13 00:49:48;;;;;;;17.75;10.35;;;;;;;;;;4975302;28;20102;-61
2022/10/13 00:52:16;;;;;;;18.23;10.32;;;;;;;;;;4983171;28;20034;-63
2022/10/13 00:54:42;;;;;;;20.67;11.60;;;;;;;;;;4995045;28;20025;-61
2022/10/13 01:00:51;;;;;;;19.30;11.35;;;;;;;;;;4984494;28;20060;-61
2022/10/13 01:03:21;;;;;;;14.40;11.18;;;;;;;;;;4995303;28;20038;-61
2022/10/13 01:05:48;;;;;;;18.38;10.50;;;;;;;;;;4994703;28;20448;-62
2022/10/13 01:08:14;;;;;;;16.60;10.95;;;;;;;;;;4994806;28;20025;-63
2022/10/13 01:11:14;;;;;;;17.50;10.65;;;;;;;;;;4994364;28;20473;-61
2022/10/13 01:14:09;;;;;;;15.93;9.88;;;;;;;;;;4994268;28;20029;-64
2022/10/13 01:17:32;;;;;;;17.58;10.38;;;;;;;;;;4992520;28;20050;-62
2022/10/13 01:20:36;;;;;;;14.75;10.20;;;;;;;;;;4992535;28;20077;-62
2022/10/13 01:23:21;;;;;;;13.48;9.70;;;;;;;;;;4992523;28;20458;-63
2022/10/13 01:26:14;;;;;;;14.15;9.88;;;;;;;;;;4993837;28;20493;-62
2022/10/13 01:28:52;;;;;;;18.20;11.18;;;;;;;;;;4994986;28;20069;-62
2022/10/13 01:31:31;;;;;;;25.75;11.60;;;;;;;;;;4994602;28;20026;-61
2022/10/13 01:34:15;;;;;;;16.90;10.23;;;;;;;;;;4994370;28;20061;-63
2022/10/13 01:37:01;;;;;;;18.13;10.27;;;;;;;;;;4994338;28;20540;-61
2022/10/13 01:39:41;;;;;;;15.98;10.95;;;;;;;;;;4994174;28;20049;-61
2022/10/13 01:42:16;;;;;;;18.73;10.50;;;;;;;;;;4994166;28;20057;-62
2022/10/13 01:44:49;;;;;;;18.48;11.07;;;;;;;;;;4993970;28;20038;-61
2022/10/13 01:47:17;;;;;;;16.70;10.43;;;;;;;;;;4992765;28;20089;-62
2022/10/13 01:49:44;;;;;;;16.10;10.40;;;;;;;;;;4994210;28;20118;-61
2022/10/13 01:52:17;;;;;;;14.90;10.65;;;;;;;;;;4994071;28;20103;-62
2022/10/13 01:54:50;;;;;;;13.73;9.80;;;;;;;;;;4993631;28;20054;-61
2022/10/13 01:57:35;;;;;;;18.60;11.07;;;;;;;;;;4994013;28;20034;-63
2022/10/13 02:00:14;;;;;;;17.77;11.57;;;;;;;;;;4994042;28;20070;-62
2022/10/13 02:03:07;;;;;;;17.73;11.40;;;;;;;;;;4993083;28;20445;-62
2022/10/13 02:05:33;;;;;;;14.40;10.25;;;;;;;;;;4993306;28;20046;-66
2022/10/13 02:08:12;;;;;;;15.27;10.27;;;;;;;;;;4993770;28;20519;-62
2022/10/13 02:10:57;;;;;;;14.93;9.90;;;;;;;;;;4994054;28;20034;-62
2022/10/13 02:13:30;;;;;;;13.88;9.93;;;;;;;;;;4991564;28;20444;-61
2022/10/13 02:15:58;;;;;;;13.82;10.10;;;;;;;;;;4990721;28;20788;-62
2022/10/13 02:18:45;;;;;;;16.15;10.68;;;;;;;;;;4993398;28;20042;-62
2022/10/13 02:21:14;;;;;;;19.50;11.73;;;;;;;;;;4993501;28;20041;-64
2022/10/13 02:23:42;;;;;;;22.75;11.45;;;;;;;;;;4992426;28;20029;-65
2022/10/13 02:26:08;;;;;;;16.65;11.00;;;;;;;;;;4993355;28;20030;-65
2022/10/13 02:28:36;;;;;;;18.48;11.60;;;;;;;;;;4993231;28;20042;-67
2022/10/13 02:31:05;;;;;;;16.85;11.20;;;;;;;;;;4993041;28;20080;-65
2022/10/13 02:33:32;;;;;;;19.17;11.05;;;;;;;;;;4993104;28;20031;-62
2022/10/13 02:35:58;;;;;;;16.02;11.45;;;;;;;;;;4993359;28;20035;-62
2022/10/13 02:38:24;;;;;;;19.45;12.10;;;;;;;;;;4993156;28;20036;-62
2022/10/13 02:40:50;;;;;;;14.23;10.93;;;;;;;;;;4993245;28;20390;-62
2022/10/13 02:43:16;;;;;;;17.48;10.27;;;;;;;;;;4993090;28;20026;-62
2022/10/13 02:45:42;;;;;;;20.80;10.45;;;;;;;;;;4992983;28;20117;-62
2022/10/13 02:48:08;;;;;;;15.65;10.52;;;;;;;;;;4993363;28;20097;-61
2022/10/13 02:50:34;;;;;;;15.60;11.75;;;;;;;;;;4992839;28;20472;-63
2022/10/13 02:52:59;;;;;;;21.17;11.98;;;;;;;;;;4992591;28;20033;-61
2022/10/13 02:55:25;;;;;;;17.33;9.95;;;;;;;;;;4992257;28;20107;-64
2022/10/13 02:57:55;;;;;;;14.10;9.90;;;;;;;;;;4992454;28;20042;-65
2022/10/13 03:00:21;;;;;;;20.60;9.65;;;;;;;;;;4992674;28;20461;-62
2022/10/13 03:02:48;;;;;;;12.02;7.93;;;;;;;;;;4992690;28;20029;-68
2022/10/13 03:05:14;;;;;;;13.70;8.43;;;;;;;;;;4992569;28;20038;-65
2022/10/13 03:07:39;;;;;;;12.02;8.60;;;;;;;;;;4992853;28;20026;-61
2022/10/13 03:10:06;;;;;;;12.88;8.20;;;;;;;;;;4985708;28;20034;-62
2022/10/13 03:12:32;;;;;;;14.40;8.43;;;;;;;;;;4971816;28;20122;-64
2022/10/13 03:14:58;;;;;;;12.95;9.52;;;;;;;;;;4973148;28;20197;-62
2022/10/13 03:17:24;;;;;;;16.33;9.27;;;;;;;;;;4991323;28;20080;-62
2022/10/13 03:19:50;;;;;;;14.23;8.95;;;;;;;;;;4992750;28;20073;-62
2022/10/13 03:22:17;;;;;;;15.02;9.10;;;;;;;;;;4992138;28;20034;-61
2022/10/13 03:24:44;;;;;;;23.60;10.30;;;;;;;;;;4992024;28;20034;-62
2022/10/13 03:27:10;;;;;;;16.65;9.98;;;;;;;;;;4992225;28;20026;-62
2022/10/13 03:29:36;;;;;;;17.45;9.43;;;;;;;;;;4992445;28;20421;-61
2022/10/13 03:32:02;;;;;;;12.77;9.02;;;;;;;;;;4992073;28;20038;-61
2022/10/13 03:34:28;;;;;;;16.30;9.73;;;;;;;;;;4991649;28;20513;-62
2022/10/13 03:36:55;;;;;;;14.38;10.43;;;;;;;;;;4991400;28;20030;-61
2022/10/13 03:39:21;;;;;;;20.30;10.82;;;;;;;;;;4991426;28;20045;-62
2022/10/13 03:41:46;;;;;;;20.92;11.50;;;;;;;;;;4989704;28;20049;-62
2022/10/13 03:44:13;;;;;;;22.70;10.27;;;;;;;;;;5007156;28;20046;-61
2022/10/13 03:46:39;;;;;;;19.15;10.10;;;;;;;;;;4990729;28;20023;-62
2022/10/13 03:49:05;;;;;;;17.60;8.68;;;;;;;;;;4991413;28;20030;-63
2022/10/13 03:51:31;;;;;;;15.48;9.18;;;;;;;;;;4991772;28;20096;-62
2022/10/13 03:53:57;;;;;;;17.00;9.15;;;;;;;;;;4990635;28;20038;-63
2022/10/13 03:56:25;;;;;;;15.80;8.98;;;;;;;;;;4990592;28;20054;-63
2022/10/13 03:58:54;;;;;;;16.35;9.13;;;;;;;;;;4990725;28;20047;-63
2022/10/13 04:01:25;;;;;;;16.15;8.68;;;;;;;;;;4981386;28;20039;-61
2022/10/13 04:03:53;;;;;;;24.48;10.52;;;;;;;;;;4972176;28;20042;-62
2022/10/13 04:06:19;;;;;;;22.58;8.60;;;;;;;;;;4972319;28;20481;-61
2022/10/13 04:08:45;;;;;;;26.05;10.30;;;;;;;;;;4980203;28;20034;-62
2022/10/13 04:11:13;;;;;;;23.02;9.95;;;;;;;;;;4991861;28;20508;-62
2022/10/13 04:13:42;;;;;;;21.75;9.20;;;;;;;;;;5000585;28;20496;-63
2022/10/13 04:16:12;;;;;;;22.45;10.07;;;;;;;;;;4982332;28;20045;-61
2022/10/13 04:18:38;;;;;;;19.10;9.77;;;;;;;;;;4981996;28;20042;-61
2022/10/13 04:21:09;;;;;;;34.47;11.88;;;;;;;;;;4979416;28;20374;-61
2022/10/13 04:23:36;;;;;;;21.05;10.13;;;;;;;;;;4982236;28;20041;-61
2022/10/13 04:26:03;;;;;;;18.85;9.48;;;;;;;;;;4985510;28;20098;-64
2022/10/13 04:28:32;;;;;;;20.10;10.30;;;;;;;;;;4988939;28;20396;-62
2022/10/13 04:30:58;;;;;;;19.70;10.07;;;;;;;;;;4983206;28;20039;-63
2022/10/13 04:33:27;;;;;;;28.65;10.13;;;;;;;;;;4976160;28;20035;-63
2022/10/13 04:35:53;;;;;;;17.52;9.30;;;;;;;;;;4975839;28;20481;-63
2022/10/13 04:38:19;;;;;;;20.50;9.70;;;;;;;;;;4991763;28;20084;-62
2022/10/13 04:40:45;;;;;;;35.40;11.05;;;;;;;;;;4995488;28;20064;-65
2022/10/13 04:43:11;;;;;;;32.78;10.98;;;;;;;;;;4995037;28;20038;-64
2022/10/13 04:45:36;;;;;;;23.73;11.90;;;;;;;;;;4994245;28;20412;-65
2022/10/13 04:48:02;;;;;;;25.13;10.43;;;;;;;;;;4993618;28;20042;-64
2022/10/13 04:50:28;;;;;;;28.25;11.35;;;;;;;;;;4987969;28;20037;-64
2022/10/13 04:52:58;;;;;;;28.52;10.30;;;;;;;;;;4979981;28;20035;-65
2022/10/13 04:55:24;;;;;;;26.88;10.30;;;;;;;;;;4975622;28;20082;-64
2022/10/13 04:57:50;;;;;;;25.65;9.90;;;;;;;;;;4975301;28;20039;-67
2022/10/13 05:00:16;;;;;;;28.60;9.88;;;;;;;;;;4976382;28;20436;-65
2022/10/13 05:02:42;;;;;;;29.25;11.23;;;;;;;;;;4992433;28;20358;-66
2022/10/13 05:05:08;;;;;;;26.33;10.05;;;;;;;;;;4992470;28;20584;-66
2022/10/13 05:07:35;;;;;;;23.88;10.63;;;;;;;;;;4993054;28;20088;-67
2022/10/13 05:10:01;;;;;;;35.33;10.73;;;;;;;;;;4992359;28;20026;-65
2022/10/13 05:12:27;;;;;;;25.20;11.00;;;;;;;;;;4993822;28;20030;-65
2022/10/13 05:14:53;;;;;;;25.85;9.77;;;;;;;;;;4993969;28;20084;-65
2022/10/13 05:17:19;;;;;;;28.52;10.63;;;;;;;;;;4994449;28;20038;-65
2022/10/13 05:19:44;;;;;;;26.20;10.40;;;;;;;;;;4994492;28;20060;-65
2022/10/13 05:22:10;;;;;;;31.33;10.98;;;;;;;;;;4994632;28;20034;-66
2022/10/13 05:24:40;;;;;;;27.42;10.30;;;;;;;;;;4994927;28;20046;-66
2022/10/13 05:27:10;;;;;;;20.90;9.38;;;;;;;;;;4994809;28;20121;-67
2022/10/13 05:29:36;;;;;;;23.45;9.90;;;;;;;;;;4995007;28;20058;-64
2022/10/13 05:32:03;;;;;;;16.50;9.38;;;;;;;;;;4993518;28;20555;-64
2022/10/13 05:34:29;;;;;;;29.17;11.85;;;;;;;;;;4994798;28;20061;-64
2022/10/13 05:36:55;;;;;;;23.40;9.30;;;;;;;;;;4993646;28;20019;-66
2022/10/13 05:39:21;;;;;;;18.25;9.95;;;;;;;;;;4994808;28;20049;-64
2022/10/13 05:41:47;;;;;;;25.55;9.18;;;;;;;;;;4994600;28;20120;-64
2022/10/13 05:44:19;;;;;;;16.48;10.88;;;;;;;;;;4994681;28;20076;-65
2022/10/13 05:46:55;;;;;;;17.70;9.32;;;;;;;;;;4994732;28;20061;-66
2022/10/13 05:49:21;;;;;;;24.65;9.45;;;;;;;;;;4994617;28;20052;-66
2022/10/13 05:51:52;;;;;;;20.67;9.10;;;;;;;;;;4994507;28;20018;-65
2022/10/13 05:54:23;;;;;;;19.42;8.30;;;;;;;;;;4994342;28;20034;-66
2022/10/13 05:56:54;;;;;;;18.70;8.77;;;;;;;;;;4994245;28;20173;-66
2022/10/13 05:59:21;;;;;;;28.75;8.93;;;;;;;;;;4994145;28;20034;-66
2022/10/13 06:01:48;;;;;;;16.20;8.13;;;;;;;;;;4994426;28;20069;-65
2022/10/13 06:04:20;;;;;;;18.23;8.75;;;;;;;;;;4994189;28;20070;-65
2022/10/13 06:06:47;;;;;;;25.33;10.17;;;;;;;;;;4993957;28;20034;-64
2022/10/13 06:09:14;;;;;;;21.67;9.73;;;;;;;;;;4994010;28;20276;-66
2022/10/13 06:11:40;;;;;;;23.23;11.27;;;;;;;;;;4994226;28;20117;-65
2022/10/13 06:14:06;;;;;;;19.48;10.00;;;;;;;;;;4994286;28;20105;-65
2022/10/13 06:16:35;;;;;;;22.55;9.27;;;;;;;;;;4994188;28;20245;-68
2022/10/13 06:19:00;;;;;;;22.00;11.77;;;;;;;;;;4993841;28;20061;-64
2022/10/13 06:21:27;;;;;;;20.75;11.65;;;;;;;;;;4994072;28;20082;-65
2022/10/13 06:23:53;;;;;;;23.42;11.50;;;;;;;;;;4993650;28;20031;-64
2022/10/13 06:26:19;;;;;;;20.83;11.15;;;;;;;;;;4993598;28;20045;-68
2022/10/13 06:28:45;;;;;;;26.42;11.43;;;;;;;;;;4993557;28;20022;-68
2022/10/13 06:31:11;;;;;;;21.02;10.65;;;;;;;;;;4993474;28;20507;-64
2022/10/13 06:33:36;;;;;;;21.02;11.40;;;;;;;;;;4993748;28;20038;-64
2022/10/13 06:36:04;;;;;;;22.52;10.20;;;;;;;;;;4993925;28;20035;-64
2022/10/13 06:38:31;;;;;;;20.17;11.30;;;;;;;;;;4993875;28;20030;-65
2022/10/13 06:41:04;;;;;;;17.40;11.10;;;;;;;;;;4993711;28;20401;-65
2022/10/13 06:43:31;;;;;;;29.40;11.75;;;;;;;;;;4993231;28;20058;-65
2022/10/13 06:46:00;;;;;;;21.00;11.57;;;;;;;;;;4992333;28;20464;-64
2022/10/13 06:48:27;;;;;;;20.02;11.55;;;;;;;;;;4993047;28;20054;-64
2022/10/13 06:50:53;;;;;;;17.30;10.68;;;;;;;;;;4993657;28;20026;-65
2022/10/13 06:53:19;;;;;;;15.52;11.07;;;;;;;;;;4993549;28;20038;-66
2022/10/13 06:55:45;;;;;;;17.70;11.70;;;;;;;;;;4993587;28;20036;-65
2022/10/13 06:58:11;;;;;;;18.13;10.73;;;;;;;;;;4993287;28;20117;-64
2022/10/13 07:00:39;;;;;;;17.70;10.95;;;;;;;;;;4992023;28;20022;-69
2022/10/13 07:03:05;;;;;;;18.83;11.07;;;;;;;;;;4993708;28;20381;-64
2022/10/13 07:05:31;;;;;;;17.33;9.30;;;;;;;;;;4993458;28;20053;-65
2022/10/13 07:07:57;;;;;;;18.83;10.38;;;;;;;;;;4990166;28;20069;-69
2022/10/13 07:10:23;;;;;;;15.65;9.60;;;;;;;;;;4992599;28;20469;-70
2022/10/13 07:12:49;;;;;;;15.15;9.30;;;;;;;;;;4973604;28;20038;-73
2022/10/13 07:15:15;;;;;;;14.63;8.93;;;;;;;;;;4973380;28;20023;-67
2022/10/13 07:17:41;;;;;;;15.95;9.52;;;;;;;;;;4973080;28;20046;-66
2022/10/13 07:20:07;;;;;;;14.45;9.50;;;;;;;;;;4973665;28;20406;-65
2022/10/13 07:22:33;;;;;;;13.82;8.88;;;;;;;;;;4972418;28;20039;-66
2022/10/13 07:24:59;;;;;;;16.13;10.40;;;;;;;;;;4973464;28;20034;-67
2022/10/13 07:27:26;;;;;;;19.75;11.43;;;;;;;;;;4973419;28;20037;-70
2022/10/13 07:29:52;;;;;;;21.00;9.00;;;;;;;;;;4973481;28;20125;-67
2022/10/13 07:32:18;;;;;;;17.83;8.70;;;;;;;;;;4973283;28;20031;-67
2022/10/13 07:34:44;;;;;;;13.70;8.60;;;;;;;;;;4973972;28;20033;-65
2022/10/13 07:37:10;;;;;;;22.30;8.05;;;;;;;;;;4992620;28;20495;-64
2022/10/13 07:39:37;;;;;;;14.93;8.95;;;;;;;;;;4992473;28;20077;-64
2022/10/13 07:42:03;;;;;;;17.08;9.00;;;;;;;;;;4973126;28;20094;-64
2022/10/13 07:44:29;;;;;;;12.85;8.27;;;;;;;;;;4973016;28;20038;-66
2022/10/13 07:46:55;;;;;;;15.95;9.20;;;;;;;;;;4972807;28;20038;-66
2022/10/13 07:49:21;;;;;;;13.23;8.27;;;;;;;;;;4972107;28;20393;-66
2022/10/13 07:51:47;;;;;;;14.27;8.75;;;;;;;;;;4971775;28;20065;-66
2022/10/13 07:54:17;;;;;;;21.17;8.80;;;;;;;;;;4974132;28;20034;-65
2022/10/13 07:56:44;;;;;;;16.02;8.55;;;;;;;;;;4976176;28;20074;-67
2022/10/13 07:59:11;;;;;;;19.13;7.40;;;;;;;;;;4998251;28;20449;-68
2022/10/13 08:01:37;;;;;;;10.88;6.55;;;;;;;;;;4986637;28;20050;-67
2022/10/13 08:04:03;;;;;;;10.27;6.85;;;;;;;;;;4987635;28;20029;-70
2022/10/13 08:06:29;;;;;;;12.10;6.32;;;;;;;;;;4990213;28;20117;-64
2022/10/13 08:08:59;;;;;;;11.27;4.95;;;;;;;;;;4991764;28;20038;-65
2022/10/13 08:11:26;;;;;;;10.82;5.60;;;;;;;;;;4996191;28;20030;-67
2022/10/13 08:13:52;;;;;;;7.53;5.45;;;;;;;;;;4994481;28;20388;-64
2022/10/13 08:16:21;;;;;;;8.63;5.78;;;;;;;;;;4996052;28;20432;-67
2022/10/13 08:18:48;;;;;;;9.32;6.60;;;;;;;;;;4996040;28;20034;-65
2022/10/13 08:21:19;;;;;;;12.95;6.95;;;;;;;;;;4994778;28;20030;-70
2022/10/13 08:23:45;;;;;;;11.07;6.05;;;;;;;;;;4996173;28;20026;-67
2022/10/13 08:26:31;;;;;;;9.30;5.57;;;;;;;;;;4995531;28;20027;-64
2022/10/13 08:28:57;;;;;;;8.55;4.15;;;;;;;;;;4995872;28;20038;-65
2022/10/13 08:31:23;;;;;;;8.48;5.55;;;;;;;;;;4995897;28;20530;-69
2022/10/13 08:33:51;;;;;;;9.07;5.13;;;;;;;;;;4995203;28;20560;-69
2022/10/13 08:36:17;;;;;;;6.97;3.85;;;;;;;;;;4995306;28;20031;-69
2022/10/13 08:38:44;;;;;;;9.60;3.92;;;;;;;;;;4994985;28;20430;-65
2022/10/13 08:41:24;;;;;;;8.90;4.72;;;;;;;;;;4995312;28;20052;-67
2022/10/13 08:43:55;;;;;;;9.65;4.20;;;;;;;;;;4993892;28;20364;-66
2022/10/13 08:46:28;;;;;;;12.05;5.32;;;;;;;;;;4990245;28;20022;-65
2022/10/13 08:48:54;;;;;;;;;;;;;;;;;;4994240;28;20042;-64
2022/10/13 08:51:22;;;;;;;10.52;4.72;;;;;;;;;;4990282;28;19961;-64
2022/10/13 08:53:48;;;;;;;9.52;4.63;;;;;;;;;;4975827;28;20030;-65
2022/10/13 08:56:20;;;;;;;8.02;4.38;;;;;;;;;;4975628;28;20410;-66
2022/10/13 08:58:49;;;;;;;6.38;4.00;;;;;;;;;;4976054;28;20146;-64
2022/10/13 09:01:19;;;;;;;8.88;4.47;;;;;;;;;;4975755;28;20589;-64
2022/10/13 09:04:08;;;;;;;10.88;4.50;;;;;;;;;;4975294;28;20035;-64
2022/10/13 09:06:41;;;;;;;14.05;4.70;;;;;;;;;;4975744;28;20026;-65
2022/10/13 09:09:14;;;;;;;13.23;4.35;;;;;;;;;;4975804;28;20429;-63
2022/10/13 09:11:46;;;;;;;9.77;4.95;;;;;;;;;;4975296;28;20042;-64
2022/10/13 09:14:26;;;;;;;11.27;4.07;;;;;;;;;;4975456;28;20078;-66
2022/10/13 09:16:55;;;;;;;11.60;4.95;;;;;;;;;;4974975;28;20442;-65
2022/10/13 09:19:28;;;;;;;12.77;4.85;;;;;;;;;;4975527;28;20026;-66
2022/10/13 09:22:27;;;;;;;11.18;4.32;;;;;;;;;;4975751;28;20069;-68
2022/10/13 09:25:14;;;;;;;11.80;4.38;;;;;;;;;;4974238;28;20417;-67
2022/10/13 09:27:47;;;;;;;7.97;4.00;;;;;;;;;;4975365;28;20073;-65
2022/10/13 09:30:31;;;;;;;;;;;;;;;;;;4975093;28;20121;-69
2022/10/13 09:33:08;;;;;;;10.48;3.92;;;;;;;;;;4975417;28;20373;-66
2022/10/13 09:35:47;;;;;;;15.20;4.65;;;;;;;;;;4974209;28;20035;-64
2022/10/13 09:38:22;;;;;;;11.27;4.03;;;;;;;;;;4975100;28;20486;-64
2022/10/13 09:41:10;;;;;;;11.40;4.57;;;;;;;;;;4974799;28;20050;-68
2022/10/13 09:43:45;;;;;;;6.28;3.80;;;;;;;;;;4974541;28;20481;-65
2022/10/13 09:46:46;;;;;;;8.65;3.38;;;;;;;;;;4974828;28;20034;-65
2022/10/13 09:49:33;;;;;;;12.15;3.95;;;;;;;;;;4975561;28;20026;-66
2022/10/13 09:52:24;;;;;;;8.85;3.50;;;;;;;;;;4993893;28;20034;-65
2022/10/13 09:54:59;;;;;;;9.80;4.43;;;;;;;;;;4988763;28;20069;-66
2022/10/13 09:57:40;;;;;;;6.57;3.10;;;;;;;;;;4993496;28;20030;-67
2022/10/13 10:00:36;;;;;;;6.05;2.80;;;;;;;;;;4992866;28;20035;-66
2022/10/13 10:03:11;;;;;;;5.78;3.15;;;;;;;;;;5001073;28;20069;-69
2022/10/13 10:05:49;;;;;;;6.10;3.42;;;;;;;;;;4994185;28;20041;-71
2022/10/13 10:08:26;;;;;;;6.55;2.92;;;;;;;;;;4993735;28;20096;-64
2022/10/13 10:10:54;;;;;;;5.65;2.45;;;;;;;;;;4994286;28;20058;-70
2022/10/13 10:13:19;;;;;;;8.40;2.65;;;;;;;;;;4994202;28;20353;-65
2022/10/13 10:16:00;;;;;;;5.57;2.63;;;;;;;;;;4994000;28;20085;-70
2022/10/13 10:18:37;;;;;;;6.20;2.88;;;;;;;;;;4990217;28;20038;-66
2022/10/13 10:21:24;;;;;;;3.50;2.38;;;;;;;;;;4990727;28;20508;-66
2022/10/13 10:24:02;;;;;;;6.75;2.33;;;;;;;;;;4992661;28;20026;-66
2022/10/13 10:26:44;;;;;;;3.70;2.50;;;;;;;;;;4992303;28;20092;-68
2022/10/13 10:29:31;;;;;;;12.43;5.13;;;;;;;;;;4993441;28;20066;-68
2022/10/13 10:32:00;;;;;;;6.75;3.00;;;;;;;;;;4993498;28;20030;-69
2022/10/13 10:34:44;;;;;;;9.98;4.53;;;;;;;;;;4992951;28;20026;-65
2022/10/13 10:37:23;;;;;;;8.23;3.28;;;;;;;;;;4993143;28;20034;-68
2022/10/13 10:40:16;;;;;;;6.57;3.42;;;;;;;;;;4993786;28;20041;-66
2022/10/13 10:43:11;;;;;;;4.18;2.58;;;;;;;;;;4974371;28;20499;-72
2022/10/13 10:45:38;;;;;;;6.65;2.60;;;;;;;;;;4993065;28;20112;-66
2022/10/13 10:48:11;;;;;;;4.03;2.10;;;;;;;;;;4993351;28;20030;-64
2022/10/13 10:50:38;;;;;;;5.63;2.78;;;;;;;;;;4993697;28;20230;-64
2022/10/13 10:53:19;;;;;;;7.43;2.60;;;;;;;;;;4993412;28;20018;-64
2022/10/13 10:55:47;;;;;;;3.95;2.10;;;;;;;;;;4993351;28;20039;-66
2022/10/13 10:58:13;;;;;;;6.28;3.55;;;;;;;;;;4988990;28;20109;-65
2022/10/13 11:01:03;;;;;;;6.30;2.40;;;;;;;;;;4973170;28;20109;-65
2022/10/13 11:03:47;;;;;;;6.35;2.67;;;;;;;;;;4973603;28;20134;-64
2022/10/13 11:06:15;;;;;;;7.05;3.10;;;;;;;;;;4977085;28;20033;-65
2022/10/13 11:08:45;;;;;;;8.13;2.65;;;;;;;;;;4993257;28;20089;-66
2022/10/13 11:11:30;;;;;;;3.67;2.60;;;;;;;;;;4992389;28;20551;-64
2022/10/13 11:14:00;;;;;;;4.88;2.65;;;;;;;;;;4991674;28;20034;-63
2022/10/13 11:16:32;;;;;;;5.55;2.75;;;;;;;;;;4990352;28;20030;-64
2022/10/13 11:19:07;;;;;;;4.53;2.70;;;;;;;;;;4991311;28;20035;-66
2022/10/13 11:21:52;;;;;;;6.93;2.80;;;;;;;;;;4992678;28;20038;-65
2022/10/13 11:24:33;;;;;;;6.22;2.40;;;;;;;;;;4992941;28;20379;-64
2022/10/13 11:27:11;;;;;;;6.18;2.65;;;;;;;;;;4992459;28;20030;-63
2022/10/13 11:29:43;;;;;;;8.05;3.00;;;;;;;;;;4989155;28;20095;-65
2022/10/13 11:32:24;;;;;;;6.80;3.03;;;;;;;;;;4978554;28;20027;-66
2022/10/13 11:35:05;;;;;;;6.45;2.80;;;;;;;;;;4975955;28;20094;-65
2022/10/13 11:37:57;;;;;;;6.00;2.67;;;;;;;;;;4998639;28;20106;-67
2022/10/13 11:40:43;;;;;;;7.88;2.80;;;;;;;;;;4992482;28;20054;-66
2022/10/13 11:43:40;;;;;;;5.72;2.92;;;;;;;;;;4994940;28;20481;-65
2022/10/13 11:46:20;;;;;;;5.13;2.85;;;;;;;;;;4994169;28;20030;-68
2022/10/13 11:49:15;;;;;;;7.60;3.13;;;;;;;;;;4995952;28;20061;-66
2022/10/13 11:52:11;;;;;;;3.90;2.80;;;;;;;;;;4990827;28;20053;-65
2022/10/13 11:55:09;;;;;;;4.22;2.75;;;;;;;;;;4994099;28;20528;-66
2022/10/13 11:57:34;;;;;;;5.70;3.00;;;;;;;;;;4976135;28;20081;-64
2022/10/13 12:00:02;;;;;;;10.77;3.28;;;;;;;;;;4993537;28;20034;-63
2022/10/13 12:02:50;;;;;;;13.63;5.15;;;;;;;;;;4993518;28;20034;-64
2022/10/13 12:05:22;;;;;;;7.75;3.88;;;;;;;;;;4985846;28;20035;-64
2022/10/13 12:07:50;;;;;;;15.27;8.00;;;;;;;;;;4990449;28;20041;-64
2022/10/13 12:10:30;;;;;;;11.82;6.63;;;;;;;;;;4988960;28;20458;-64
2022/10/13 12:12:57;;;;;;;6.57;3.10;;;;;;;;;;4987203;28;20034;-63
2022/10/13 12:15:43;;;;;;;5.90;3.10;;;;;;;;;;4988112;28;20022;-64
2022/10/13 12:18:21;;;;;;;8.98;3.78;;;;;;;;;;4988453;28;20034;-64
2022/10/13 12:20:58;;;;;;;5.38;2.95;;;;;;;;;;4994628;28;20044;-68
2022/10/13 12:23:28;;;;;;;4.65;3.00;;;;;;;;;;4986142;28;20027;-63
2022/10/13 12:25:57;;;;;;;5.55;3.03;;;;;;;;;;4992617;28;20022;-64
2022/10/13 12:30:59;;;;;;;6.22;3.30;;;;;;;;;;5997551;23;20303;-71
2022/10/13 12:33:35;;;;;;;10.90;2.83;;;;;;;;;;4995477;23;20471;-73
2022/10/13 12:36:18;;;;;;;6.75;3.28;;;;;;;;;;5048860;23;20489;-72
2022/10/13 12:48:00;;;;;;;5.07;3.28;;;;;;;;;;5005018;28;20563;-69
2022/10/13 12:50:26;;;;;;;10.85;5.47;;;;;;;;;;5005249;28;20117;-70
2022/10/13 12:52:55;;;;;;;7.03;3.60;;;;;;;;;;5016585;28;20049;-72
2022/10/13 13:01:45;;;;;;;6.85;4.00;;;;;;;;;;4970207;28;20074;-77
2022/10/13 13:04:26;;;;;;;8.82;3.80;;;;;;;;;;4973597;28;20039;-70
2022/10/13 13:06:58;;;;;;;4.57;3.45;;;;;;;;;;4974270;28;20038;-72
2022/10/13 13:09:32;;;;;;;7.47;3.60;;;;;;;;;;4974752;28;20065;-69
2022/10/13 13:12:28;;;;;;;8.85;3.15;;;;;;;;;;4970533;28;20035;-71
2022/10/13 13:14:55;;;;;;;7.88;3.45;;;;;;;;;;4955637;28;20046;-69
2022/10/13 13:17:58;;;;;;;7.43;3.55;;;;;;;;;;4971755;28;20031;-71
2022/10/13 13:20:53;;;;;;;8.35;3.95;;;;;;;;;;4969700;28;20409;-69
2022/10/13 13:23:20;;;;;;;9.73;4.28;;;;;;;;;;4967101;28;20134;-70
2022/10/13 13:25:47;;;;;;;7.60;3.50;;;;;;;;;;4968606;28;20030;-69
2022/10/13 13:28:14;;;;;;;5.28;3.17;;;;;;;;;;4966081;28;20050;-69
2022/10/13 13:30:41;;;;;;;8.10;2.95;;;;;;;;;;4968901;28;20117;-70
2022/10/13 13:33:10;;;;;;;6.35;3.25;;;;;;;;;;4973293;28;20039;-70
2022/10/13 13:35:36;;;;;;;5.95;3.08;;;;;;;;;;4959624;28;20504;-72
2022/10/13 13:38:03;;;;;;;6.07;2.95;;;;;;;;;;4969540;28;20178;-71
2022/10/13 13:40:30;;;;;;;5.60;3.03;;;;;;;;;;4967904;28;20027;-70
2022/10/13 13:42:56;;;;;;;9.18;2.78;;;;;;;;;;4965173;28;20023;-74
2022/10/13 13:45:26;;;;;;;7.30;3.15;;;;;;;;;;4964529;28;20131;-72
2022/10/13 13:47:53;;;;;;;5.25;2.88;;;;;;;;;;4960098;28;20074;-69
2022/10/13 13:50:27;;;;;;;6.43;3.00;;;;;;;;;;4956243;28;20035;-69
2022/10/13 13:52:57;;;;;;;8.32;2.88;;;;;;;;;;4971730;28;20050;-70
2022/10/13 13:55:23;;;;;;;5.40;3.20;;;;;;;;;;4967545;28;20145;-73
2022/10/13 13:57:49;;;;;;;8.20;3.05;;;;;;;;;;4970579;28;20401;-70
2022/10/13 14:00:16;;;;;;;5.78;2.65;;;;;;;;;;4970279;28;20034;-70
2022/10/13 14:02:46;;;;;;;5.85;2.80;;;;;;;;;;4968817;28;20469;-70
2022/10/13 14:05:13;;;;;;;6.50;2.83;;;;;;;;;;4967074;28;20047;-71
2022/10/13 14:07:39;;;;;;;4.90;3.00;;;;;;;;;;4965684;28;20039;-70
2022/10/13 14:10:07;;;;;;;5.13;2.67;;;;;;;;;;4971571;28;20385;-73
2022/10/13 14:12:34;;;;;;;6.03;2.80;;;;;;;;;;4967687;28;20481;-71
2022/10/13 14:15:00;;;;;;;5.28;2.50;;;;;;;;;;4969218;28;20049;-72
2022/10/13 14:17:27;;;;;;;11.02;2.95;;;;;;;;;;4971843;28;20545;-71
2022/10/13 14:19:53;;;;;;;7.85;3.00;;;;;;;;;;4964798;28;20142;-72
2022/10/13 14:22:20;;;;;;;8.38;2.60;;;;;;;;;;4967274;28;20031;-70
2022/10/13 14:24:46;;;;;;;4.13;2.50;;;;;;;;;;4971450;28;20045;-71
2022/10/13 14:27:13;;;;;;;5.65;2.72;;;;;;;;;;4970607;28;20069;-71
2022/10/13 14:29:38;;;;;;;4.70;3.03;;;;;;;;;;4970226;28;20065;-71
2022/10/13 14:32:04;;;;;;;6.97;2.33;;;;;;;;;;4965068;28;20399;-72
2022/10/13 14:34:32;;;;;;;4.55;2.20;;;;;;;;;;4968183;28;20055;-72
2022/10/13 14:36:58;;;;;;;5.88;2.80;;;;;;;;;;4969598;28;20446;-70
2022/10/13 14:39:24;;;;;;;6.20;2.28;;;;;;;;;;4965842;28;20031;-75
2022/10/13 14:41:50;;;;;;;5.38;2.70;;;;;;;;;;4966344;28;20501;-72
2022/10/13 14:44:16;;;;;;;4.20;2.58;;;;;;;;;;4971126;28;20027;-71
2022/10/13 14:46:44;;;;;;;4.43;2.80;;;;;;;;;;4967255;28;20086;-74
2022/10/13 14:49:11;;;;;;;4.93;2.17;;;;;;;;;;4969723;28;20121;-72
2022/10/13 14:51:41;;;;;;;5.50;2.80;;;;;;;;;;4968281;28;20042;-71
2022/10/13 14:54:07;;;;;;;6.13;2.45;;;;;;;;;;4965116;28;20734;-76
2022/10/13 14:56:34;;;;;;;4.28;2.38;;;;;;;;;;4966055;28;20019;-72
2022/10/13 14:59:03;;;;;;;6.47;2.30;;;;;;;;;;4958004;28;20034;-73
2022/10/13 15:01:37;;;;;;;5.72;2.97;;;;;;;;;;4968194;28;20070;-70
2022/10/13 15:04:03;;;;;;;4.50;2.53;;;;;;;;;;4970709;28;20393;-71
2022/10/13 15:06:30;;;;;;;4.40;2.50;;;;;;;;;;4969284;28;20027;-70
2022/10/13 15:08:56;;;;;;;6.35;2.38;;;;;;;;;;4971022;28;20030;-70
2022/10/13 15:11:23;;;;;;;3.95;2.20;;;;;;;;;;4971397;28;20027;-75
2022/10/13 15:13:49;;;;;;;5.03;2.50;;;;;;;;;;4967051;28;20046;-72
2022/10/13 15:16:25;;;;;;;3.60;1.95;;;;;;;;;;4964072;28;20019;-68